Stations météo

réclame
Mon MeteoGroup
Martina Franca, Italie (16318): Température de l'air & dewpoint: 18.02.2018 13:00:00 - 24.02.2018 13:00:00 (CET)Martina Franca, Italie (16318): Vitesse du vent: 18.02.2018 13:00:00 - 24.02.2018 13:00:00 (CET)Martina Franca, Italie (16318): Direction du vent: 18.02.2018 13:00:00 - 24.02.2018 13:00:00 (CET)Martina Franca, Italie (16318): reduced air pressure: 18.02.2018 13:00:00 - 24.02.2018 13:00:00 (CET)Martina Franca, Italie (16318): Quantités de précipitations: 18.02.2018 13:00:00 - 24.02.2018 13:00:00 (CET)
Date & Time tt [°C] td [°C] ff [km/h] ff [knt] dd ppp [hPa] rr [mm]
24.02.2018 13:00:00 10,1 8,8 89 48 NE 1005,3 0,0
24.02.2018 12:00:00 10,2 9,7 87 47 ENE 1005,4 -
24.02.2018 11:00:00 9,3 9,0 91 49 ENE 1005,4 -
24.02.2018 10:00:00 8,3 7,8 87 47 E 1005,2 -
24.02.2018 09:00:00 7,9 7,4 85 46 E 1004,6 -
24.02.2018 08:00:00 7,1 6,6 85 46 ESE 1004,2 -
24.02.2018 07:00:00 6,3 5,7 89 48 NE 1003,5 -
24.02.2018 06:00:00 6,4 5,8 89 48 E 1003,2 -
24.02.2018 05:00:00 6,6 6,0 83 45 E 1002,5 -
24.02.2018 04:00:00 7,1 6,5 83 45 ESE 1002,2 -
24.02.2018 03:00:00 7,3 6,5 83 45 S 1001,6 -
24.02.2018 02:00:00 7,2 6,3 85 46 ENE 1002,1 -
24.02.2018 01:00:00 7,9 6,8 83 45 S 1002,5 -
24.02.2018 00:00:00 10,7 8,4 59 32 ENE 1001,3 -
23.02.2018 23:00:00 10,7 8,9 68 37 E 1001,4 -
23.02.2018 22:00:00 10,8 8,2 61 33 E 1002,2 -
23.02.2018 21:00:00 10,4 8,5 81 44 NE 1003,2 -
23.02.2018 20:00:00 10,3 8,7 87 47 NNE 1003,4 -
23.02.2018 19:00:00 10,2 8,9 93 50 E 1003,5 0,0
23.02.2018 18:00:00 10,4 9,3 91 49 E 1003,3 -
23.02.2018 17:00:00 10,7 9,6 85 46 SW 1003,4 -
23.02.2018 16:00:00 11,1 10,0 91 49 W 1003,8 -
23.02.2018 15:00:00 11,2 9,9 93 50 WNW 1004,7 -
23.02.2018 14:00:00 11,2 10,1 - - - 1004,8 -
23.02.2018 13:00:00 11,6 10,7 68 37 WNW 1005,2 0,0
23.02.2018 12:00:00 11,7 11,5 46 25 S 1005,4 -
23.02.2018 11:00:00 11,0 10,8 16 9 S 1006,0 -
23.02.2018 10:00:00 10,1 9,8 16 9 S 1006,1 -
23.02.2018 09:00:00 9,5 9,2 29 16 NNW 1006,0 -
23.02.2018 08:00:00 9,1 8,8 29 16 SSE 1006,0 -
23.02.2018 07:00:00 8,6 8,3 - - - 1005,5 0,0
23.02.2018 06:00:00 8,7 8,4 - - - 1005,4 -
23.02.2018 05:00:00 8,8 8,3 54 29 SE 1005,7 -
23.02.2018 04:00:00 8,7 8,2 - - - 1005,6 -
23.02.2018 03:00:00 8,6 - - - - - -
23.02.2018 02:00:00 8,6 8,0 - - - 1005,9 -
23.02.2018 01:00:00 - - - - - - 0,0
23.02.2018 00:00:00 9,2 8,4 11 6 S 1005,9 -
22.02.2018 23:00:00 9,3 8,4 - - - 1005,9 -
22.02.2018 22:00:00 9,1 8,0 - - - 1005,7 -
22.02.2018 21:00:00 8,9 7,8 - - - 1006,1 -
22.02.2018 20:00:00 9,0 8,1 - - - 1006,1 -
22.02.2018 19:00:00 9,1 8,0 - - - 1005,9 0,0
22.02.2018 18:00:00 - - - - - - -
22.02.2018 17:00:00 9,5 7,6 55 30 S 1005,4 -
22.02.2018 16:00:00 10,1 7,7 44 24 S 1005,3 -
22.02.2018 15:00:00 10,1 7,1 37 20 S 1005,3 -
22.02.2018 14:00:00 10,4 6,9 50 27 S 1005,1 -
22.02.2018 13:00:00 10,7 7,4 41 22 S 1005,3 0,0
22.02.2018 12:00:00 9,8 6,5 52 28 S 1005,8 -
22.02.2018 11:00:00 10,2 9,3 34 18 NW 1005,7 -
22.02.2018 10:00:00 8,9 8,4 24 13 SSW 1005,6 -
22.02.2018 09:00:00 7,0 6,6 29 16 ENE 1005,6 -
22.02.2018 08:00:00 6,1 5,5 35 19 S 1005,8 -
22.02.2018 07:00:00 5,4 4,8 35 19 SSE 1005,3 -
22.02.2018 06:00:00 4,8 4,1 41 22 SSE 1004,9 -
22.02.2018 05:00:00 4,4 3,7 37 20 SSE 1004,7 -
22.02.2018 04:00:00 4,2 3,5 35 19 SSE 1004,5 -
22.02.2018 03:00:00 4,5 3,8 35 19 S 1004,2 -
22.02.2018 02:00:00 5,8 5,2 35 19 S 1003,9 -
22.02.2018 01:00:00 6,0 5,4 52 28 SSE 1003,3 -
22.02.2018 00:00:00 6,7 6,1 39 21 NE 1003,0 -
21.02.2018 23:00:00 6,4 5,8 34 18 NE 1002,7 -
21.02.2018 22:00:00 6,8 6,2 48 26 NNW 1002,5 -
21.02.2018 21:00:00 6,8 6,2 57 31 SSE 1002,1 -
21.02.2018 20:00:00 6,7 5,9 55 30 SSW 1001,5 -
21.02.2018 19:00:00 6,7 5,9 65 35 NE 1001,5 -
21.02.2018 18:00:00 7,0 6,2 21 11 NNE 1001,2 -
21.02.2018 17:00:00 7,2 6,4 76 41 WSW 1000,9 -
21.02.2018 16:00:00 7,3 6,5 54 29 SW 1000,9 -
21.02.2018 15:00:00 8,1 7,3 57 31 W 1000,4 -
21.02.2018 14:00:00 7,9 6,8 44 24 ENE 1000,7 -
21.02.2018 13:00:00 7,5 5,8 55 30 ESE 1001,5 -
21.02.2018 12:00:00 10,7 8,1 78 42 N 1001,0 -
21.02.2018 11:00:00 10,1 9,6 52 28 W 1001,5 -
21.02.2018 10:00:00 9,4 9,1 39 21 ESE 1001,4 -
21.02.2018 09:00:00 8,4 7,9 63 34 NE 1001,6 -
21.02.2018 08:00:00 7,4 6,9 42 23 ESE 1001,4 -
21.02.2018 07:00:00 7,2 6,6 18 10 E 1001,1 -
21.02.2018 06:00:00 5,6 4,9 11 6 ENE 1001,8 -
21.02.2018 05:00:00 6,1 5,5 9 5 NE 1001,8 -
21.02.2018 04:00:00 6,5 5,9 8 4 ENE 1002,2 -
21.02.2018 03:00:00 6,7 6,1 - - - 1002,6 -
21.02.2018 02:00:00 6,5 5,7 26 14 WSW 1003,0 -
21.02.2018 01:00:00 6,2 5,4 24 13 SE 1003,1 -
21.02.2018 00:00:00 5,8 4,9 39 21 E 1003,6 -
20.02.2018 23:00:00 5,9 5,0 35 19 SSW 1004,4 -
20.02.2018 22:00:00 5,8 4,9 31 17 S 1004,7 -
20.02.2018 21:00:00 5,9 5,0 35 19 SW 1004,3 -
20.02.2018 20:00:00 6,2 5,3 15 8 ENE 1004,2 -
20.02.2018 19:00:00 6,3 5,5 16 9 ENE 1004,5 -
20.02.2018 18:00:00 6,8 6,0 16 9 ENE 1004,8 -
20.02.2018 17:00:00 7,2 6,4 16 9 ENE 1005,1 -
20.02.2018 16:00:00 7,0 6,1 13 7 NE 1005,6 -
20.02.2018 15:00:00 7,5 6,4 15 8 NE 1006,0 -
20.02.2018 14:00:00 10,4 8,8 28 15 SSW 1006,1 -
20.02.2018 13:00:00 10,5 9,2 31 17 WSW 1006,8 0,0
20.02.2018 12:00:00 9,7 8,9 39 21 WNW 1007,7 -
20.02.2018 11:00:00 9,0 8,4 29 16 NE 1008,4 -
20.02.2018 10:00:00 8,2 7,6 29 16 SE 1008,6 -
20.02.2018 09:00:00 7,7 7,1 31 17 SE 1009,0 -
20.02.2018 08:00:00 6,7 6,1 29 16 E 1009,6 -
20.02.2018 07:00:00 6,5 5,7 50 27 NW 1009,6 -
20.02.2018 06:00:00 7,1 6,5 39 21 N 1009,4 -
20.02.2018 05:00:00 7,0 6,2 9 5 E 1009,6 -
20.02.2018 04:00:00 7,1 6,3 34 18 NE 1009,7 -
20.02.2018 03:00:00 7,4 6,6 35 19 ESE 1010,2 -
20.02.2018 02:00:00 7,2 6,3 22 12 ENE 1010,7 -
20.02.2018 01:00:00 7,5 6,6 46 25 S 1011,1 0,0
20.02.2018 00:00:00 7,4 6,5 70 38 ESE 1011,4 -
19.02.2018 23:00:00 7,5 6,6 70 38 SSE 1011,6 -
19.02.2018 22:00:00 7,7 6,8 70 38 E 1011,8 -
19.02.2018 21:00:00 7,4 6,5 63 34 S 1012,2 -
19.02.2018 20:00:00 7,8 6,9 74 40 S 1012,3 -
19.02.2018 19:00:00 7,7 6,6 35 19 ENE 1012,1 0,0
19.02.2018 18:00:00 8,0 6,8 34 18 NE 1012,2 -
19.02.2018 17:00:00 8,7 7,0 31 17 NE 1011,9 -
19.02.2018 16:00:00 9,9 7,6 41 22 SW 1011,6 -
19.02.2018 15:00:00 10,2 7,0 39 21 NE 1011,6 -
19.02.2018 14:00:00 10,1 6,8 41 22 SW 1012,2 -
19.02.2018 13:00:00 10,6 7,3 35 19 W 1012,3 0,0
19.02.2018 12:00:00 10,7 7,0 39 21 W 1012,6 -
19.02.2018 11:00:00 11,0 9,7 29 16 W 1013,1 -
19.02.2018 10:00:00 8,9 8,1 35 19 NNW 1013,3 -
19.02.2018 09:00:00 7,7 6,9 35 19 NW 1013,8 -
19.02.2018 08:00:00 6,6 5,7 35 19 NNE 1014,0 -
19.02.2018 07:00:00 6,0 5,1 37 20 N 1014,0 -
19.02.2018 06:00:00 6,2 5,3 37 20 N 1013,7 -
19.02.2018 05:00:00 6,1 5,2 37 20 W 1014,0 -
19.02.2018 04:00:00 6,3 5,4 37 20 W 1014,0 -
19.02.2018 03:00:00 6,6 5,8 37 20 N 1014,5 -
19.02.2018 02:00:00 7,0 6,1 37 20 NNW 1014,9 -
19.02.2018 01:00:00 6,8 5,7 24 13 N 1015,0 -
19.02.2018 00:00:00 7,1 6,0 34 18 N 1015,3 -
18.02.2018 23:00:00 8,0 7,1 31 17 N 1015,3 -
18.02.2018 22:00:00 7,8 6,7 24 13 ENE 1015,6 -
18.02.2018 21:00:00 8,2 7,0 4 2 SSW 1015,6 -
18.02.2018 20:00:00 8,7 7,3 21 11 ESE 1015,7 -
18.02.2018 19:00:00 8,6 6,9 39 21 ENE 1015,8 0,0
18.02.2018 18:00:00 8,1 4,4 50 27 NE 1015,9 -
18.02.2018 17:00:00 9,5 5,4 35 19 S 1015,7 -
18.02.2018 16:00:00 10,6 6,3 34 18 SSE 1015,4 -
18.02.2018 15:00:00 11,5 6,6 26 14 SSW 1015,2 -
18.02.2018 14:00:00 11,8 8,2 35 19 SSW 1015,3 -
18.02.2018 13:00:00 11,5 9,0 44 24 S 1015,8 0,0

tt = Température de l'air
td = dewpoint
ff = Vitesse du vent
dd = Direction du vent
ppp = reduced air pressure
rr = Quantités de précipitations

stations d'obs. à proximité